Time;durP1;ratioP1;P1;durP2;ratioP2;P2;SDS_P1;SDS_P2;PMS_P1;PMS_P2;Temp;Humidity;BMP_temperature;BMP_pressure;BME280_temperature;BME280_humidity;BME280_pressure;Samples;Min_cycle;Max_cycle;Signal;HPM_P1;HPM_P2
2023/12/05 00:00:35;;;;;;;13.13;10.65;;;0.50;99.90;;;;;;5124886;28;20040;-66
2023/12/05 00:03:01;;;;;;;11.80;10.57;;;0.50;99.90;;;;;;5111526;27;20472;-66
2023/12/05 00:05:27;;;;;;;13.20;11.70;;;0.70;99.90;;;;;;5131890;27;20107;-66
2023/12/05 00:07:52;;;;;;;13.10;11.38;;;0.50;99.90;;;;;;5132581;27;20039;-66
2023/12/05 00:10:19;;;;;;;13.32;11.48;;;0.50;99.90;;;;;;5127426;27;20031;-66
2023/12/05 00:12:44;;;;;;;12.73;11.20;;;0.50;99.90;;;;;;5112902;27;20403;-66
2023/12/05 00:15:10;;;;;;;12.70;11.27;;;0.90;99.90;;;;;;5135400;27;20087;-66
2023/12/05 00:17:36;;;;;;;12.60;11.25;;;0.50;99.90;;;;;;5125670;27;20031;-66
2023/12/05 00:20:02;;;;;;;12.88;10.75;;;0.50;99.90;;;;;;5115815;27;20035;-66
2023/12/05 00:22:28;;;;;;;11.98;10.43;;;0.50;99.90;;;;;;5135157;27;20035;-66
2023/12/05 00:24:54;;;;;;;12.30;10.70;;;0.50;99.90;;;;;;5110868;27;20050;-66
2023/12/05 00:27:20;;;;;;;13.20;11.35;;;0.50;99.90;;;;;;5121763;27;20047;-67
2023/12/05 00:29:47;;;;;;;11.00;9.85;;;0.50;99.90;;;;;;5135778;27;20032;-66
2023/12/05 00:32:13;;;;;;;12.30;11.02;;;0.50;99.90;;;;;;5108951;28;20039;-66
2023/12/05 00:34:38;;;;;;;11.98;10.68;;;0.50;99.90;;;;;;5128778;27;20394;-66
2023/12/05 00:37:04;;;;;;;11.63;10.43;;;0.50;99.90;;;;;;5109667;28;20055;-66
2023/12/05 00:39:30;;;;;;;12.32;11.02;;;0.50;99.90;;;;;;5142887;27;20043;-66
2023/12/05 00:41:55;;;;;;;12.90;10.88;;;0.50;99.90;;;;;;5105211;28;20046;-66
2023/12/05 00:44:21;;;;;;;12.13;10.77;;;0.50;99.90;;;;;;5124324;28;20479;-67
2023/12/05 00:46:47;;;;;;;12.85;10.80;;;0.50;99.90;;;;;;5104865;28;20046;-66
2023/12/05 00:49:13;;;;;;;12.68;10.77;;;0.90;99.90;;;;;;5109069;28;20051;-67
2023/12/05 00:51:38;;;;;;;12.23;10.93;;;0.50;99.90;;;;;;5138211;27;20032;-67
2023/12/05 00:54:04;;;;;;;12.55;11.25;;;0.40;99.90;;;;;;5091701;28;20051;-67
2023/12/05 00:56:30;;;;;;;15.27;11.40;;;0.40;99.90;;;;;;5109071;28;20040;-67
2023/12/05 00:58:55;;;;;;;14.55;13.13;;;0.40;99.90;;;;;;5135143;27;20041;-67
2023/12/05 01:01:21;;;;;;;12.45;11.15;;;0.50;99.90;;;;;;5128289;27;20495;-67
2023/12/05 01:03:47;;;;;;;14.45;12.23;;;0.50;99.90;;;;;;5110253;28;20039;-67
2023/12/05 01:06:12;;;;;;;14.93;12.90;;;0.50;99.90;;;;;;5107274;28;20052;-67
2023/12/05 01:08:39;;;;;;;12.82;11.55;;;0.50;99.90;;;;;;5092083;27;20081;-68
2023/12/05 01:11:05;;;;;;;13.50;12.10;;;0.50;99.90;;;;;;5118360;28;20050;-68
2023/12/05 01:13:30;;;;;;;14.82;12.68;;;0.50;99.90;;;;;;5124501;28;20387;-68
2023/12/05 01:15:56;;;;;;;13.38;12.15;;;0.50;99.90;;;;;;5128701;27;20032;-68
2023/12/05 01:18:22;;;;;;;14.15;12.63;;;0.50;99.90;;;;;;5110574;28;20472;-67
2023/12/05 01:20:48;;;;;;;13.13;11.82;;;0.50;99.90;;;;;;5122478;28;20078;-68
2023/12/05 01:23:13;;;;;;;13.70;12.32;;;0.50;99.90;;;;;;5123391;28;20048;-68
2023/12/05 01:25:39;;;;;;;14.77;13.25;;;0.50;99.90;;;;;;5125552;27;20050;-67
2023/12/05 01:28:05;;;;;;;13.82;12.45;;;0.50;99.90;;;;;;5104170;28;20055;-68
2023/12/05 01:30:30;;;;;;;14.40;12.93;;;0.50;99.90;;;;;;5125719;27;20031;-68
2023/12/05 01:32:56;;;;;;;16.85;13.07;;;0.50;99.90;;;;;;5114187;27;20671;-68
2023/12/05 01:35:22;;;;;;;14.15;12.73;;;0.40;99.90;;;;;;5116287;28;20044;-68
2023/12/05 01:37:50;;;;;;;13.65;12.02;;;0.40;99.90;;;;;;5112097;27;20082;-68
2023/12/05 01:40:16;;;;;;;14.27;12.80;;;1.00;99.90;;;;;;5105086;28;20043;-68
2023/12/05 01:42:42;;;;;;;14.35;12.85;;;0.50;99.90;;;;;;5133338;27;20083;-68
2023/12/05 01:45:08;;;;;;;14.82;13.13;;;0.50;99.90;;;;;;5123302;27;20039;-68
2023/12/05 01:47:39;;;;;;;14.70;13.30;;;0.50;99.90;;;;;;5123368;27;20044;-68
2023/12/05 01:50:10;;;;;;;14.68;13.23;;;0.40;99.90;;;;;;5122444;27;20054;-68
2023/12/05 01:52:38;;;;;;;15.02;12.73;;;0.50;99.90;;;;;;5125184;27;20091;-68
2023/12/05 01:55:04;;;;;;;14.45;12.60;;;0.50;99.90;;;;;;5103337;28;20076;-68
2023/12/05 01:57:32;;;;;;;16.60;13.45;;;0.50;99.90;;;;;;5125271;27;20516;-68
2023/12/05 01:59:57;;;;;;;13.73;12.32;;;0.50;99.90;;;;;;5134539;27;20066;-68
2023/12/05 02:02:24;;;;;;;14.35;12.60;;;0.50;99.90;;;;;;5122431;28;20055;-66
2023/12/05 02:04:49;;;;;;;15.43;12.68;;;0.50;99.90;;;;;;5105064;28;20521;-66
2023/12/05 02:07:16;;;;;;;15.73;13.25;;;0.50;99.90;;;;;;5112462;28;20040;-67
2023/12/05 02:09:44;;;;;;;15.00;12.38;;;0.50;99.90;;;;;;5092072;27;20402;-67
2023/12/05 02:12:10;;;;;;;18.30;14.80;;;0.50;99.90;;;;;;5112304;28;20067;-67
2023/12/05 02:14:36;;;;;;;15.93;12.77;;;0.50;99.90;;;;;;5132546;27;20042;-68
2023/12/05 02:17:39;;;;;;;14.68;13.10;;;0.50;99.90;;;;;;5108224;28;20044;-67
2023/12/05 02:20:08;;;;;;;15.45;13.88;;;0.50;99.90;;;;;;5066515;28;20072;-67
2023/12/05 02:23:01;;;;;;;15.27;13.00;;;0.50;99.90;;;;;;5134027;27;20047;-67
2023/12/05 02:25:46;;;;;;;12.82;11.60;;;0.50;99.90;;;;;;5123021;27;20043;-67
2023/12/05 02:28:12;;;;;;;14.80;13.30;;;0.70;99.90;;;;;;5121267;28;20068;-68
2023/12/05 02:30:38;;;;;;;16.92;14.48;;;0.50;99.90;;;;;;5134593;27;20046;-67
2023/12/05 02:33:03;;;;;;;15.32;13.73;;;0.50;99.90;;;;;;5094498;28;20051;-67
2023/12/05 02:35:30;;;;;;;16.35;13.63;;;0.60;99.90;;;;;;5108090;27;20494;-67
2023/12/05 02:38:05;;;;;;;14.23;12.73;;;0.50;99.90;;;;;;5114326;27;20505;-67
2023/12/05 02:40:49;;;;;;;15.40;13.50;;;0.60;99.90;;;;;;5140965;27;20078;-67
2023/12/05 02:43:21;;;;;;;13.90;12.50;;;0.60;99.90;;;;;;5103614;28;20100;-67
2023/12/05 02:45:50;;;;;;;14.57;12.35;;;0.60;99.90;;;;;;5102606;28;20037;-67
2023/12/05 02:48:17;;;;;;;13.55;12.15;;;0.90;99.90;;;;;;5100858;27;20489;-67
2023/12/05 02:50:44;;;;;;;15.02;12.45;;;1.40;99.90;;;;;;5103163;28;20094;-68
2023/12/05 02:53:10;;;;;;;15.32;13.35;;;0.50;99.90;;;;;;5103973;28;20044;-67
2023/12/05 02:55:37;;;;;;;14.27;12.88;;;0.80;99.90;;;;;;5079693;28;20088;-67
2023/12/05 02:58:03;;;;;;;13.85;12.48;;;0.60;99.90;;;;;;5102642;28;20107;-67
2023/12/05 03:00:32;;;;;;;14.63;13.07;;;0.50;99.90;;;;;;5103904;28;20621;-67
2023/12/05 03:02:57;;;;;;;13.63;12.30;;;0.50;99.90;;;;;;5130891;27;20084;-67
2023/12/05 03:05:23;;;;;;;14.50;13.10;;;0.60;99.90;;;;;;5141430;27;20476;-67
2023/12/05 03:07:48;;;;;;;16.05;14.35;;;0.60;99.90;;;;;;5096060;27;20075;-67
2023/12/05 03:10:14;;;;;;;17.15;13.70;;;0.60;99.90;;;;;;5106812;28;20092;-67
2023/12/05 03:12:40;;;;;;;15.35;12.95;;;0.60;99.90;;;;;;5133091;27;20039;-66
2023/12/05 03:15:06;;;;;;;15.88;13.52;;;0.60;99.90;;;;;;5125698;27;20039;-67
2023/12/05 03:17:32;;;;;;;19.50;17.52;;;0.60;99.90;;;;;;5121531;28;20078;-66
2023/12/05 03:19:58;;;;;;;15.30;13.02;;;0.60;99.90;;;;;;5124253;27;20043;-67
2023/12/05 03:22:23;;;;;;;15.35;13.75;;;0.80;99.90;;;;;;5121856;28;20043;-67
2023/12/05 03:24:50;;;;;;;16.33;13.55;;;0.60;99.90;;;;;;5129585;27;20050;-67
2023/12/05 03:27:16;;;;;;;15.70;14.05;;;0.60;99.90;;;;;;5106675;27;20032;-67
2023/12/05 03:29:41;;;;;;;17.27;14.63;;;0.60;99.90;;;;;;5122662;28;20091;-68
2023/12/05 03:32:07;;;;;;;16.88;14.20;;;0.50;99.90;;;;;;5110492;28;20035;-68
2023/12/05 03:34:33;;;;;;;16.67;13.95;;;0.90;99.90;;;;;;5122634;27;20071;-67
2023/12/05 03:36:59;;;;;;;15.23;13.43;;;0.60;99.90;;;;;;5103995;28;20488;-68
2023/12/05 03:39:24;;;;;;;17.23;14.52;;;0.60;99.90;;;;;;5140831;28;20031;-67
2023/12/05 03:41:50;;;;;;;19.15;14.85;;;1.60;99.90;;;;;;5117299;28;20075;-68
2023/12/05 03:44:16;;;;;;;16.10;14.20;;;0.60;99.90;;;;;;5111003;28;20070;-67
2023/12/05 03:46:41;;;;;;;16.63;14.70;;;0.60;99.90;;;;;;5101416;28;20090;-68
2023/12/05 03:49:07;;;;;;;17.58;14.18;;;0.60;99.90;;;;;;5085565;28;20054;-67
2023/12/05 03:51:33;;;;;;;17.45;13.68;;;0.60;99.90;;;;;;5102886;28;20040;-67
2023/12/05 03:53:58;;;;;;;16.90;14.32;;;0.60;99.90;;;;;;5120763;28;20460;-68
2023/12/05 03:56:24;;;;;;;16.23;14.57;;;0.60;99.90;;;;;;5102798;28;20047;-67
2023/12/05 03:58:51;;;;;;;19.08;15.40;;;0.60;99.90;;;;;;5101212;28;20052;-67
2023/12/05 04:01:17;;;;;;;17.52;14.57;;;0.60;99.90;;;;;;5121464;28;20044;-67
2023/12/05 04:03:42;;;;;;;15.80;13.93;;;0.60;99.90;;;;;;5101790;28;20043;-67
2023/12/05 04:06:09;;;;;;;19.33;14.48;;;0.60;99.90;;;;;;5121568;28;20036;-67
2023/12/05 04:08:34;;;;;;;19.92;15.32;;;0.60;99.90;;;;;;5122100;28;20043;-67
2023/12/05 04:11:00;;;;;;;19.70;15.55;;;0.60;99.90;;;;;;5120692;28;20085;-67
2023/12/05 04:13:26;;;;;;;18.30;15.43;;;0.60;99.90;;;;;;5102677;28;20040;-67
2023/12/05 04:15:51;;;;;;;19.00;16.15;;;0.60;99.90;;;;;;5084937;28;20036;-67
2023/12/05 04:18:17;;;;;;;17.75;14.82;;;0.60;99.90;;;;;;5121481;28;20043;-67
2023/12/05 04:20:43;;;;;;;18.48;15.00;;;0.60;99.90;;;;;;5098946;28;20038;-67
2023/12/05 04:23:09;;;;;;;19.75;15.65;;;0.60;99.90;;;;;;5106961;28;20050;-67
2023/12/05 04:25:34;;;;;;;18.67;15.00;;;0.60;99.90;;;;;;5101078;28;20071;-67
2023/12/05 04:28:00;;;;;;;17.08;14.70;;;0.60;99.90;;;;;;5112020;27;20051;-67
2023/12/05 04:30:26;;;;;;;17.70;14.63;;;0.60;99.90;;;;;;5118519;27;20108;-67
2023/12/05 04:32:51;;;;;;;22.35;19.00;;;0.60;99.90;;;;;;5111650;28;20396;-67
2023/12/05 04:35:17;;;;;;;19.90;15.70;;;0.60;99.90;;;;;;5135995;27;20039;-67
2023/12/05 04:37:43;;;;;;;20.30;18.13;;;0.80;99.90;;;;;;5110000;27;20070;-67
2023/12/05 04:40:09;;;;;;;19.58;15.90;;;0.60;99.90;;;;;;5133362;27;20043;-67
2023/12/05 04:42:35;;;;;;;19.52;15.55;;;0.60;99.90;;;;;;5104965;28;20396;-67
2023/12/05 04:45:00;;;;;;;18.88;15.10;;;0.60;99.90;;;;;;5126041;27;20039;-67
2023/12/05 04:47:26;;;;;;;18.52;15.75;;;0.60;99.90;;;;;;5121296;28;20052;-67
2023/12/05 04:49:52;;;;;;;18.92;15.65;;;0.60;99.90;;;;;;5103145;28;20082;-67
2023/12/05 04:52:17;;;;;;;17.60;15.10;;;0.60;99.90;;;;;;5080369;28;20048;-67
2023/12/05 04:54:43;;;;;;;20.63;15.75;;;0.60;99.90;;;;;;5101689;28;20048;-67
2023/12/05 04:57:09;;;;;;;20.48;16.40;;;0.60;99.90;;;;;;5102909;28;20108;-67
2023/12/05 04:59:34;;;;;;;23.88;16.88;;;0.60;99.90;;;;;;5106627;28;20053;-67
2023/12/05 05:02:00;;;;;;;19.80;15.82;;;0.60;99.90;;;;;;5108815;28;20047;-67
2023/12/05 05:04:26;;;;;;;20.73;16.13;;;0.60;99.90;;;;;;5108798;28;20135;-66
2023/12/05 05:06:51;;;;;;;20.95;15.73;;;1.00;99.90;;;;;;5102839;28;20040;-67
2023/12/05 05:09:18;;;;;;;21.17;16.48;;;0.60;99.90;;;;;;5104244;28;20040;-67
2023/12/05 05:11:43;;;;;;;19.55;15.93;;;0.60;99.90;;;;;;5102776;28;20504;-67
2023/12/05 05:14:09;;;;;;;18.70;15.00;;;0.60;99.90;;;;;;5105985;28;20040;-67
2023/12/05 05:16:35;;;;;;;19.80;15.13;;;0.60;99.90;;;;;;5114413;28;20084;-66
2023/12/05 05:19:00;;;;;;;21.25;15.73;;;1.20;99.90;;;;;;5114029;28;20044;-68
2023/12/05 05:21:26;;;;;;;21.83;15.70;;;1.00;99.90;;;;;;5101373;28;20048;-68
2023/12/05 05:23:52;;;;;;;20.35;15.13;;;0.60;99.90;;;;;;5101457;28;20112;-68
2023/12/05 05:26:18;;;;;;;20.70;15.93;;;0.60;99.90;;;;;;5101896;28;20036;-68
2023/12/05 05:28:44;;;;;;;19.77;16.02;;;0.90;99.90;;;;;;5100757;28;20063;-68
2023/12/05 05:31:09;;;;;;;21.52;16.20;;;0.60;99.90;;;;;;5105236;28;20042;-68
2023/12/05 05:33:35;;;;;;;19.52;15.27;;;1.10;99.90;;;;;;5100605;28;20050;-68
2023/12/05 05:36:01;;;;;;;23.05;17.65;;;0.60;99.90;;;;;;5110266;28;20028;-68
2023/12/05 05:38:26;;;;;;;19.60;15.65;;;0.60;99.90;;;;;;5114307;28;20036;-68
2023/12/05 05:41:04;;;;;;;19.98;16.85;;;0.60;99.90;;;;;;5108796;28;20511;-68
2023/12/05 05:43:31;;;;;;;20.52;15.85;;;0.60;99.90;;;;;;5103246;28;20048;-68
2023/12/05 05:45:56;;;;;;;19.20;15.45;;;0.60;99.90;;;;;;5103547;28;20036;-67
2023/12/05 05:48:22;;;;;;;21.80;16.15;;;0.60;99.90;;;;;;5106822;27;20051;-67
2023/12/05 05:50:48;;;;;;;19.58;16.63;;;0.60;99.90;;;;;;5103626;28;20096;-67
2023/12/05 05:53:14;;;;;;;21.65;16.33;;;0.80;99.90;;;;;;5100210;27;20039;-67
2023/12/05 05:55:39;;;;;;;19.73;15.77;;;0.60;99.90;;;;;;5104192;28;20043;-67
2023/12/05 05:58:05;;;;;;;20.88;16.23;;;0.60;99.90;;;;;;5129504;27;20031;-67
2023/12/05 06:00:31;;;;;;;19.33;15.63;;;0.60;99.90;;;;;;5114896;27;20044;-67
2023/12/05 06:02:57;;;;;;;22.42;16.70;;;1.40;99.90;;;;;;5115789;28;20048;-67
2023/12/05 06:05:24;;;;;;;21.08;15.32;;;0.60;99.90;;;;;;5088387;28;20044;-67
2023/12/05 06:07:50;;;;;;;20.88;15.95;;;0.60;99.90;;;;;;5103307;28;20051;-68
2023/12/05 06:10:16;;;;;;;19.63;15.57;;;0.60;99.90;;;;;;5104819;27;20050;-67
2023/12/05 06:12:42;;;;;;;21.42;17.02;;;0.60;99.90;;;;;;5120621;28;20122;-68
2023/12/05 06:15:08;;;;;;;21.30;15.95;;;0.60;99.90;;;;;;5134682;27;20046;-67
2023/12/05 06:17:34;;;;;;;21.45;15.38;;;0.60;99.90;;;;;;5143386;27;20068;-67
2023/12/05 06:19:59;;;;;;;24.42;16.20;;;0.90;99.90;;;;;;5116555;28;20047;-67
2023/12/05 06:22:25;;;;;;;20.45;16.48;;;0.60;99.90;;;;;;5122692;28;20043;-67
2023/12/05 06:24:51;;;;;;;19.73;16.13;;;0.60;99.90;;;;;;5086257;28;20040;-67
2023/12/05 06:27:16;;;;;;;22.30;15.85;;;0.60;99.90;;;;;;5122692;28;20079;-67
2023/12/05 06:29:42;;;;;;;22.60;16.30;;;0.60;99.90;;;;;;5125932;27;20069;-67
2023/12/05 06:32:08;;;;;;;20.08;15.90;;;1.00;99.90;;;;;;5121286;27;20042;-67
2023/12/05 06:34:33;;;;;;;20.23;15.82;;;0.60;99.90;;;;;;5124676;27;20085;-67
2023/12/05 06:36:59;;;;;;;23.92;15.82;;;0.60;99.90;;;;;;5106315;27;20043;-67
2023/12/05 06:39:25;;;;;;;21.23;16.25;;;0.60;99.90;;;;;;5124174;27;20035;-67
2023/12/05 06:41:51;;;;;;;21.70;15.20;;;0.60;99.90;;;;;;5129992;27;20127;-67
2023/12/05 06:44:17;;;;;;;20.35;15.75;;;0.60;99.90;;;;;;5103724;28;20521;-67
2023/12/05 06:46:42;;;;;;;23.45;16.73;;;0.60;99.90;;;;;;5093938;27;20050;-67
2023/12/05 06:49:08;;;;;;;21.25;16.17;;;0.60;99.90;;;;;;5142083;27;20035;-68
2023/12/05 06:51:34;;;;;;;20.67;16.67;;;0.60;99.90;;;;;;5113391;27;20483;-67
2023/12/05 06:53:59;;;;;;;23.50;17.63;;;0.60;99.90;;;;;;5109603;28;20051;-68
2023/12/05 06:56:25;;;;;;;21.40;16.75;;;0.60;99.90;;;;;;5103653;28;20039;-67
2023/12/05 06:58:51;;;;;;;20.67;16.15;;;0.60;99.90;;;;;;5119957;28;20061;-67
2023/12/05 07:01:17;;;;;;;22.52;16.75;;;0.60;99.90;;;;;;5104101;28;20040;-68
2023/12/05 07:03:43;;;;;;;21.00;15.68;;;0.60;99.90;;;;;;5121644;27;20048;-67
2023/12/05 07:06:09;;;;;;;21.90;16.23;;;0.60;99.90;;;;;;5122204;28;20110;-68
2023/12/05 07:08:35;;;;;;;19.50;15.90;;;0.60;99.90;;;;;;5103047;28;20048;-67
2023/12/05 07:11:03;;;;;;;20.98;16.67;;;0.60;99.90;;;;;;5102563;28;20054;-67
2023/12/05 07:13:29;;;;;;;20.30;15.80;;;0.60;99.90;;;;;;5128188;27;20088;-67
2023/12/05 07:15:56;;;;;;;22.92;17.20;;;0.60;99.90;;;;;;5106277;28;20464;-67
2023/12/05 07:18:22;;;;;;;22.73;16.30;;;0.60;99.90;;;;;;5123886;27;20095;-67
2023/12/05 07:20:48;;;;;;;20.85;15.80;;;0.60;99.90;;;;;;5107598;28;20043;-67
2023/12/05 07:23:14;;;;;;;20.33;16.15;;;0.60;99.90;;;;;;5086599;28;20046;-67
2023/12/05 07:25:40;;;;;;;20.85;15.90;;;0.60;99.90;;;;;;5128754;27;20070;-67
2023/12/05 07:28:05;;;;;;;19.98;15.90;;;0.60;99.90;;;;;;5114848;28;20048;-67
2023/12/05 07:30:31;;;;;;;18.92;15.02;;;0.60;99.90;;;;;;5105869;28;20060;-67
2023/12/05 07:32:57;;;;;;;21.00;15.95;;;0.60;99.90;;;;;;5130720;27;20035;-67
2023/12/05 07:35:23;;;;;;;19.42;15.60;;;0.60;99.90;;;;;;5141772;27;20040;-69
2023/12/05 07:37:49;;;;;;;22.65;16.60;;;0.50;99.90;;;;;;5100395;28;20134;-68
2023/12/05 07:40:15;;;;;;;22.00;16.15;;;0.60;99.90;;;;;;5131387;28;20063;-68
2023/12/05 07:42:41;;;;;;;21.38;16.48;;;0.60;99.90;;;;;;5120813;28;20055;-67
2023/12/05 07:45:07;;;;;;;23.05;16.75;;;0.50;99.90;;;;;;5134649;28;20032;-68
2023/12/05 07:47:34;;;;;;;22.33;16.48;;;0.50;99.90;;;;;;5106487;28;20066;-67
2023/12/05 07:49:59;;;;;;;19.92;16.17;;;0.50;99.90;;;;;;5119391;28;20051;-68
2023/12/05 07:52:25;;;;;;;21.35;16.05;;;0.50;99.90;;;;;;5107463;28;20058;-67
2023/12/05 07:54:51;;;;;;;22.05;16.08;;;0.50;99.90;;;;;;5097918;28;20053;-68
2023/12/05 07:57:22;;;;;;;19.77;15.68;;;0.60;99.90;;;;;;5126467;28;20039;-68
2023/12/05 07:59:48;;;;;;;21.38;15.73;;;1.10;99.90;;;;;;5089166;27;20047;-68
2023/12/05 08:02:14;;;;;;;19.85;16.17;;;0.50;99.90;;;;;;5139896;27;20122;-68
2023/12/05 08:04:41;;;;;;;23.42;17.90;;;0.50;99.90;;;;;;5107483;28;20055;-68
2023/12/05 08:07:07;;;;;;;22.33;16.42;;;0.50;99.90;;;;;;5131456;27;20059;-68
2023/12/05 08:09:33;;;;;;;24.20;16.98;;;0.80;99.90;;;;;;5112214;28;20054;-68
2023/12/05 08:11:59;;;;;;;22.08;16.58;;;0.50;99.90;;;;;;5114710;28;20107;-67
2023/12/05 08:14:25;;;;;;;21.65;16.58;;;0.60;99.90;;;;;;5143665;27;20071;-68
2023/12/05 08:16:51;;;;;;;21.33;16.00;;;0.60;99.90;;;;;;5109215;28;20067;-68
2023/12/05 08:19:16;;;;;;;21.13;16.38;;;0.60;99.90;;;;;;5129791;27;20035;-68
2023/12/05 08:21:42;;;;;;;22.05;16.45;;;0.70;99.90;;;;;;5093266;28;20051;-68
2023/12/05 08:24:08;;;;;;;23.95;17.52;;;0.60;99.90;;;;;;5105686;28;20437;-68
2023/12/05 08:26:34;;;;;;;19.35;15.65;;;0.60;99.90;;;;;;5126961;27;20077;-67
2023/12/05 08:29:01;;;;;;;21.42;16.15;;;0.60;99.90;;;;;;5105204;28;20056;-67
2023/12/05 08:31:27;;;;;;;23.42;16.35;;;0.60;99.90;;;;;;5120778;27;20593;-67
2023/12/05 08:33:52;;;;;;;20.08;16.52;;;2.30;99.90;;;;;;5103266;28;20063;-67
2023/12/05 08:36:19;;;;;;;22.02;16.00;;;0.60;99.90;;;;;;5110553;27;20035;-68
2023/12/05 08:38:44;;;;;;;20.48;16.20;;;0.60;99.90;;;;;;5108723;28;20082;-68
2023/12/05 08:41:19;;;;;;;24.10;16.38;;;0.60;99.90;;;;;;5125713;27;20046;-68
2023/12/05 08:43:48;;;;;;;22.95;16.65;;;0.60;99.90;;;;;;5103314;27;20066;-67
2023/12/05 08:46:15;;;;;;;21.63;15.75;;;0.70;99.90;;;;;;5108099;27;20036;-67
2023/12/05 08:48:41;;;;;;;20.52;16.23;;;0.70;99.90;;;;;;5096662;28;20077;-68
2023/12/05 08:51:07;;;;;;;22.85;15.95;;;1.60;99.90;;;;;;5105808;27;20040;-68
2023/12/05 08:53:34;;;;;;;23.20;16.77;;;0.70;99.90;;;;;;5134760;27;20503;-67
2023/12/05 08:56:00;;;;;;;22.08;16.20;;;0.70;99.90;;;;;;5123744;27;20052;-67
2023/12/05 08:58:26;;;;;;;21.50;15.73;;;0.70;99.90;;;;;;5123319;27;20074;-68
2023/12/05 09:00:51;;;;;;;24.63;17.88;;;1.30;99.90;;;;;;5128413;27;20118;-68
2023/12/05 09:03:18;;;;;;;22.13;16.35;;;1.00;99.90;;;;;;5118253;27;20048;-69
2023/12/05 09:05:44;;;;;;;23.45;15.70;;;0.80;99.90;;;;;;5130700;27;20168;-68
2023/12/05 09:08:10;;;;;;;21.02;16.60;;;0.80;99.90;;;;;;5104955;28;20119;-68
2023/12/05 09:10:36;;;;;;;22.58;16.00;;;0.80;99.90;;;;;;5136645;27;20062;-69
2023/12/05 09:13:02;;;;;;;21.38;16.15;;;0.80;99.90;;;;;;5115723;27;20528;-68
2023/12/05 09:15:27;;;;;;;21.80;16.40;;;0.80;99.90;;;;;;5132061;27;20051;-69
2023/12/05 09:17:53;;;;;;;23.38;17.15;;;0.90;99.90;;;;;;5142513;27;20050;-69
2023/12/05 09:20:19;;;;;;;20.08;15.77;;;0.90;99.90;;;;;;5088818;27;20427;-68
2023/12/05 09:22:45;;;;;;;21.25;15.85;;;0.90;99.90;;;;;;5106098;27;20062;-69
2023/12/05 09:25:11;;;;;;;21.55;16.48;;;0.90;99.90;;;;;;5142300;27;20048;-68
2023/12/05 09:27:37;;;;;;;22.85;17.42;;;1.30;99.90;;;;;;5089966;27;20031;-68
2023/12/05 09:30:03;;;;;;;23.08;16.83;;;0.90;99.90;;;;;;5106040;27;20069;-67
2023/12/05 09:32:29;;;;;;;21.27;16.35;;;0.90;99.90;;;;;;5106346;27;20042;-68
2023/12/05 09:34:54;;;;;;;23.42;16.02;;;0.10;99.90;;;;;;5108221;27;20091;-68
2023/12/05 09:37:21;;;;;;;20.80;15.50;;;0.90;99.90;;;;;;5107035;27;20369;-68
2023/12/05 09:39:47;;;;;;;25.60;16.48;;;0.90;99.90;;;;;;5107718;27;20379;-68
2023/12/05 09:42:13;;;;;;;21.83;15.82;;;0.90;99.90;;;;;;5089955;27;20035;-69
2023/12/05 09:44:47;;;;;;;22.88;17.20;;;0.90;99.90;;;;;;5127244;27;20091;-68
2023/12/05 09:47:20;;;;;;;24.10;16.13;;;1.00;99.90;;;;;;5115865;27;20046;-68
2023/12/05 09:49:46;;;;;;;21.83;15.95;;;1.00;99.90;;;;;;5136323;27;20050;-68
2023/12/05 09:52:12;;;;;;;20.50;15.10;;;1.00;99.90;;;;;;5137394;27;20058;-68
2023/12/05 09:54:43;;;;;;;21.90;15.50;;;1.00;99.90;;;;;;5106804;27;20078;-68
2023/12/05 09:57:12;;;;;;;20.70;14.98;;;1.00;99.90;;;;;;5108154;27;20047;-69
2023/12/05 09:59:38;;;;;;;21.50;15.70;;;1.00;99.90;;;;;;5141807;27;20045;-69
2023/12/05 10:02:04;;;;;;;21.27;15.38;;;1.00;99.90;;;;;;5142565;27;20066;-69
2023/12/05 10:04:35;;;;;;;20.13;15.15;;;1.00;99.90;;;;;;5124425;27;20121;-69
2023/12/05 10:07:01;;;;;;;21.92;16.77;;;1.10;99.90;;;;;;5122630;27;20050;-69
2023/12/05 10:09:28;;;;;;;21.05;15.32;;;1.10;99.90;;;;;;5124653;27;20126;-69
2023/12/05 10:11:55;;;;;;;21.58;15.55;;;1.10;99.90;;;;;;5123419;27;20154;-68
2023/12/05 10:14:21;;;;;;;18.75;14.52;;;1.10;99.90;;;;;;5142479;27;20039;-69
2023/12/05 10:16:49;;;;;;;22.17;15.05;;;1.10;99.90;;;;;;5123396;27;20092;-68
2023/12/05 10:19:16;;;;;;;22.67;16.73;;;1.10;99.90;;;;;;5124069;27;20039;-69
2023/12/05 10:21:44;;;;;;;19.38;15.00;;;1.30;99.90;;;;;;5120161;27;20429;-69
2023/12/05 10:24:10;;;;;;;22.00;15.00;;;1.10;99.90;;;;;;5099945;28;20062;-68
2023/12/05 10:26:45;;;;;;;20.25;15.65;;;1.10;99.90;;;;;;5122443;27;20039;-69
2023/12/05 10:29:11;;;;;;;19.27;14.25;;;1.10;99.90;;;;;;5110465;28;20051;-69
2023/12/05 10:31:37;;;;;;;19.05;15.27;;;1.10;99.90;;;;;;5115557;27;20039;-68
2023/12/05 10:34:04;;;;;;;20.38;15.32;;;1.10;99.90;;;;;;5082362;28;20047;-68
2023/12/05 10:36:30;;;;;;;18.58;14.18;;;1.20;99.90;;;;;;5108988;27;20114;-69
2023/12/05 10:38:56;;;;;;;19.83;14.15;;;1.10;99.90;;;;;;5092287;28;20556;-69
2023/12/05 10:41:22;;;;;;;19.40;14.10;;;1.10;99.90;;;;;;5078520;27;20036;-67
2023/12/05 10:43:49;;;;;;;21.02;14.73;;;1.10;99.90;;;;;;5141619;27;20039;-68
2023/12/05 10:46:15;;;;;;;19.52;14.63;;;1.10;99.90;;;;;;5104592;27;20035;-67
2023/12/05 10:48:41;;;;;;;19.48;14.90;;;1.10;99.90;;;;;;5123967;27;20061;-67
2023/12/05 10:51:08;;;;;;;20.20;14.93;;;1.70;99.90;;;;;;5106077;27;20039;-67
2023/12/05 10:53:34;;;;;;;20.58;14.57;;;1.10;99.90;;;;;;5122854;27;20045;-69
2023/12/05 10:56:18;;;;;;;17.30;13.27;;;1.10;99.90;;;;;;5124219;27;20039;-69
2023/12/05 10:58:43;;;;;;;21.23;13.90;;;1.10;99.90;;;;;;5121994;27;20437;-66
2023/12/05 11:01:10;;;;;;;18.40;14.43;;;1.10;99.90;;;;;;5123785;27;20063;-69
2023/12/05 11:03:40;;;;;;;18.52;14.02;;;1.10;99.90;;;;;;5105376;27;20058;-68
2023/12/05 11:06:09;;;;;;;18.70;13.68;;;0.10;99.90;;;;;;5123347;27;20039;-67
2023/12/05 11:08:37;;;;;;;18.70;14.93;;;1.20;99.90;;;;;;5122948;28;20058;-69
2023/12/05 11:11:04;;;;;;;20.63;14.15;;;1.10;99.90;;;;;;5122627;27;20404;-68
2023/12/05 11:13:32;;;;;;;18.90;14.20;;;1.10;99.90;;;;;;5113164;27;20047;-67
2023/12/05 11:16:10;;;;;;;20.33;14.18;;;1.20;99.90;;;;;;5140623;27;20067;-67
2023/12/05 11:18:39;;;;;;;20.10;14.40;;;1.20;99.90;;;;;;5129228;27;20039;-67
2023/12/05 11:21:36;;;;;;;18.13;13.90;;;1.20;99.90;;;;;;5122188;27;20039;-68
2023/12/05 11:24:16;;;;;;;16.95;13.35;;;1.20;99.90;;;;;;5105092;27;20051;-68
2023/12/05 11:27:14;;;;;;;20.25;14.25;;;1.20;99.90;;;;;;5123751;28;20054;-68
2023/12/05 11:30:15;;;;;;;20.38;14.10;;;1.20;99.90;;;;;;5119693;28;20048;-68
2023/12/05 11:32:54;;;;;;;18.95;13.50;;;1.20;99.90;;;;;;5119255;27;20099;-68
2023/12/05 11:35:38;;;;;;;20.15;14.32;;;1.30;99.90;;;;;;5123323;28;20043;-68
2023/12/05 11:38:12;;;;;;;19.80;14.27;;;1.20;99.90;;;;;;5121740;27;20577;-68
2023/12/05 11:40:39;;;;;;;19.33;13.75;;;1.60;99.90;;;;;;5109091;28;20066;-68
2023/12/05 11:43:09;;;;;;;18.08;12.77;;;1.30;99.90;;;;;;5111139;28;20039;-68
2023/12/05 11:45:43;;;;;;;21.00;13.30;;;1.30;99.90;;;;;;5122155;28;20440;-68
2023/12/05 11:48:13;;;;;;;18.63;13.80;;;1.30;99.90;;;;;;5119213;28;20047;-68
2023/12/05 11:50:40;;;;;;;21.17;13.65;;;1.30;99.90;;;;;;5117878;28;20059;-68
2023/12/05 11:53:08;;;;;;;19.05;13.68;;;1.40;99.90;;;;;;5102504;28;20032;-68
2023/12/05 11:55:35;;;;;;;20.90;13.55;;;1.40;99.90;;;;;;5119242;28;20048;-68
2023/12/05 11:58:01;;;;;;;18.92;13.57;;;1.60;99.90;;;;;;5105822;28;20063;-68
2023/12/05 12:00:27;;;;;;;19.25;13.65;;;1.30;99.90;;;;;;5081181;28;20499;-68
2023/12/05 12:03:00;;;;;;;20.02;13.63;;;1.30;99.90;;;;;;5099036;28;20087;-68
2023/12/05 12:05:26;;;;;;;16.83;12.50;;;1.30;99.90;;;;;;5065602;28;20063;-68
2023/12/05 12:07:58;;;;;;;18.98;14.13;;;1.40;99.90;;;;;;5098035;28;20051;-68
2023/12/05 12:10:26;;;;;;;20.58;13.68;;;1.40;99.90;;;;;;5100143;28;20036;-68
2023/12/05 12:12:52;;;;;;;19.63;13.80;;;1.50;99.90;;;;;;5100001;28;20036;-68
2023/12/05 12:15:24;;;;;;;18.40;13.35;;;1.50;99.90;;;;;;5099458;28;20503;-70
2023/12/05 12:17:50;;;;;;;20.63;14.02;;;1.40;99.90;;;;;;5100706;28;20496;-68
2023/12/05 12:20:17;;;;;;;19.48;12.98;;;1.40;99.90;;;;;;5063726;28;20043;-68
2023/12/05 12:22:48;;;;;;;20.83;14.02;;;1.40;99.90;;;;;;5085504;28;20058;-69
2023/12/05 12:25:14;;;;;;;21.55;14.40;;;1.40;99.90;;;;;;5118461;28;20036;-68
2023/12/05 12:27:41;;;;;;;21.05;13.88;;;1.30;99.90;;;;;;5084370;28;20188;-69
2023/12/05 12:30:13;;;;;;;19.27;12.90;;;1.30;99.90;;;;;;5118821;28;20099;-69
2023/12/05 12:33:13;;;;;;;20.35;13.93;;;1.20;99.90;;;;;;5099222;28;20048;-68
2023/12/05 12:35:40;;;;;;;18.30;13.10;;;1.40;99.90;;;;;;5081628;28;20055;-68